Dallas, Texas
Traffic Map
Current Weather Conditions
Dallas, Texas
Broken Clouds
Broken Clouds
24°
Feels Like: 24°
Wind Chill: 24° Ceiling: 6000
Heat Index: 24° Visibility: 10mi
Dew Point: 18° Wind: 7mph
Humidity: 69% Direction: 80° (E)
Pressure: 30.17in Gusts: 0mph
Raw Report DataKDAL 250853Z 08006KT 10SM BKN060 BKN120 BKN300 24/18 A3017 RMK AO2 SLP210 T02390178 58002 $
Traffic Incident Summary
Active as of:
Severity:
Category:
InformationThere was an issue retrieving the traffic information for this location. Please try a different location or try again shortly.
Advertisements
Track Severe Weather on mobile